Time;durP1;ratioP1;P1;durP2;ratioP2;P2;SDS_P1;SDS_P2;PMS_P1;PMS_P2;Temp;Humidity;BMP_temperature;BMP_pressure;BME280_temperature;BME280_humidity;BME280_pressure;Samples;Min_cycle;Max_cycle;Signal;HPM_P1;HPM_P2
2024/01/28 00:01:55;;;;;;;13.05;6.20;;;;;;;;;;5048533;28;20439;-68
2024/01/28 00:04:21;;;;;;;11.50;6.18;;;;;;;;;;5041900;28;20398;-67
2024/01/28 00:06:47;;;;;;;9.93;6.60;;;;;;;;;;5049687;28;20417;-67
2024/01/28 00:09:15;;;;;;;10.80;6.40;;;;;;;;;;5046527;28;20083;-67
2024/01/28 00:11:42;;;;;;;14.00;6.38;;;;;;;;;;5046945;28;20102;-67
2024/01/28 00:14:09;;;;;;;13.07;6.07;;;;;;;;;;5056545;28;20464;-67
2024/01/28 00:16:35;;;;;;;8.68;5.55;;;;;;;;;;5046724;28;20056;-67
2024/01/28 00:19:02;;;;;;;15.52;6.45;;;;;;;;;;5048048;28;20041;-67
2024/01/28 00:21:28;;;;;;;10.38;6.10;;;;;;;;;;5055371;28;20076;-67
2024/01/28 00:23:55;;;;;;;11.85;5.97;;;;;;;;;;5057406;28;20049;-67
2024/01/28 00:26:23;;;;;;;11.15;6.22;;;;;;;;;;5055188;28;20040;-67
2024/01/28 00:28:49;;;;;;;16.42;6.70;;;;;;;;;;5056169;28;20128;-67
2024/01/28 00:31:16;;;;;;;14.18;6.60;;;;;;;;;;5056404;28;20041;-67
2024/01/28 00:33:42;;;;;;;13.40;6.55;;;;;;;;;;5048772;28;20047;-67
2024/01/28 00:36:14;;;;;;;13.63;6.32;;;;;;;;;;5056632;28;20501;-67
2024/01/28 00:38:40;;;;;;;11.88;6.75;;;;;;;;;;5052410;28;20045;-67
2024/01/28 00:41:07;;;;;;;14.77;7.00;;;;;;;;;;5055863;28;20044;-67
2024/01/28 00:43:34;;;;;;;12.20;6.95;;;;;;;;;;5055681;28;20045;-67
2024/01/28 00:46:01;;;;;;;13.07;6.38;;;;;;;;;;5052962;28;20527;-67
2024/01/28 00:48:27;;;;;;;14.27;7.43;;;;;;;;;;5044716;28;20489;-67
2024/01/28 00:50:53;;;;;;;15.98;7.50;;;;;;;;;;5050907;28;20059;-67
2024/01/28 00:53:20;;;;;;;19.92;8.68;;;;;;;;;;5053607;28;20049;-67
2024/01/28 00:55:47;;;;;;;17.00;7.55;;;;;;;;;;5055660;28;20509;-67
2024/01/28 00:58:14;;;;;;;15.35;7.93;;;;;;;;;;5046461;28;20073;-67
2024/01/28 01:00:42;;;;;;;11.43;6.47;;;;;;;;;;5055258;28;20053;-67
2024/01/28 01:03:08;;;;;;;15.73;8.52;;;;;;;;;;5056039;28;20399;-67
2024/01/28 01:05:35;;;;;;;11.60;6.97;;;;;;;;;;5054593;28;20053;-67
2024/01/28 01:08:01;;;;;;;12.43;7.35;;;;;;;;;;5048763;28;20045;-69
2024/01/28 01:10:28;;;;;;;14.40;7.45;;;;;;;;;;5055157;28;20524;-67
2024/01/28 01:12:54;;;;;;;17.92;7.65;;;;;;;;;;5055708;28;20056;-67
2024/01/28 01:15:21;;;;;;;16.60;6.80;;;;;;;;;;5052290;28;20051;-67
2024/01/28 01:17:49;;;;;;;15.35;8.10;;;;;;;;;;5050509;28;20486;-67
2024/01/28 01:20:17;;;;;;;14.02;7.78;;;;;;;;;;5050738;28;20049;-67
2024/01/28 01:22:44;;;;;;;20.08;7.22;;;;;;;;;;5054777;28;20049;-67
2024/01/28 01:25:10;;;;;;;15.38;7.80;;;;;;;;;;5051607;28;20485;-67
2024/01/28 01:27:36;;;;;;;15.38;7.63;;;;;;;;;;5048167;28;20049;-67
2024/01/28 01:30:03;;;;;;;19.05;7.70;;;;;;;;;;5048681;28;20139;-67
2024/01/28 01:32:29;;;;;;;19.30;8.45;;;;;;;;;;5049746;28;20433;-67
2024/01/28 01:34:57;;;;;;;13.80;7.38;;;;;;;;;;5053378;28;20611;-67
2024/01/28 01:37:23;;;;;;;15.30;7.50;;;;;;;;;;5053119;28;20040;-67
2024/01/28 01:39:50;;;;;;;14.52;7.95;;;;;;;;;;5048482;28;20055;-67
2024/01/28 01:42:16;;;;;;;15.35;8.00;;;;;;;;;;5051555;28;20045;-68
2024/01/28 01:44:42;;;;;;;19.98;7.18;;;;;;;;;;5052365;28;20049;-67
2024/01/28 01:47:09;;;;;;;14.90;7.30;;;;;;;;;;5046807;28;20049;-67
2024/01/28 01:49:35;;;;;;;16.45;6.78;;;;;;;;;;5047802;28;20057;-67
2024/01/28 01:52:04;;;;;;;15.93;7.38;;;;;;;;;;5048609;28;20075;-67
2024/01/28 01:54:30;;;;;;;12.68;7.05;;;;;;;;;;5051104;28;20429;-67
2024/01/28 01:56:57;;;;;;;12.55;6.88;;;;;;;;;;5052071;28;20051;-68
2024/01/28 01:59:23;;;;;;;13.65;6.65;;;;;;;;;;5049802;28;20071;-67
2024/01/28 02:01:50;;;;;;;11.52;6.40;;;;;;;;;;5051967;28;20052;-67
2024/01/28 02:04:16;;;;;;;14.63;7.57;;;;;;;;;;5052567;28;20045;-67
2024/01/28 02:06:43;;;;;;;13.85;7.57;;;;;;;;;;5052771;28;20485;-67
2024/01/28 02:09:10;;;;;;;15.60;8.07;;;;;;;;;;5044178;28;20133;-67
2024/01/28 02:11:37;;;;;;;12.35;6.68;;;;;;;;;;5046880;28;20405;-67
2024/01/28 02:14:03;;;;;;;15.82;8.02;;;;;;;;;;5044278;28;20045;-67
2024/01/28 02:16:29;;;;;;;14.48;7.43;;;;;;;;;;5051494;28;20042;-68
2024/01/28 02:18:56;;;;;;;15.90;8.40;;;;;;;;;;5048665;28;20065;-67
2024/01/28 02:21:22;;;;;;;18.55;7.88;;;;;;;;;;5050337;28;20505;-67
2024/01/28 02:23:50;;;;;;;16.88;8.55;;;;;;;;;;5043444;28;20052;-67
2024/01/28 02:26:17;;;;;;;15.93;7.40;;;;;;;;;;5044803;28;20046;-67
2024/01/28 02:28:43;;;;;;;15.70;7.38;;;;;;;;;;5041030;28;20420;-68
2024/01/28 02:31:09;;;;;;;16.80;7.72;;;;;;;;;;5047228;28;20135;-67
2024/01/28 02:33:36;;;;;;;14.63;7.53;;;;;;;;;;5051236;28;20416;-67
2024/01/28 02:36:02;;;;;;;10.35;7.38;;;;;;;;;;5051872;28;20075;-67
2024/01/28 02:38:28;;;;;;;16.17;7.68;;;;;;;;;;5049544;28;20064;-67
2024/01/28 02:40:56;;;;;;;17.88;8.07;;;;;;;;;;5042463;28;20053;-67
2024/01/28 02:43:23;;;;;;;19.88;8.52;;;;;;;;;;5049505;28;20048;-67
2024/01/28 02:45:49;;;;;;;19.15;8.18;;;;;;;;;;5045170;28;20052;-67
2024/01/28 02:48:15;;;;;;;18.13;8.23;;;;;;;;;;5050377;28;20421;-67
2024/01/28 02:50:42;;;;;;;16.85;7.78;;;;;;;;;;5051067;28;20047;-67
2024/01/28 02:53:09;;;;;;;19.20;8.80;;;;;;;;;;5051678;28;20053;-67
2024/01/28 02:55:36;;;;;;;18.25;7.57;;;;;;;;;;5051993;28;20053;-68
2024/01/28 02:58:04;;;;;;;16.77;7.90;;;;;;;;;;5043171;28;20425;-68
2024/01/28 03:00:30;;;;;;;15.93;7.72;;;;;;;;;;5041934;28;20045;-67
2024/01/28 03:02:57;;;;;;;15.23;7.18;;;;;;;;;;5046787;28;20155;-68
2024/01/28 03:05:23;;;;;;;16.30;7.68;;;;;;;;;;5049677;28;20045;-68
2024/01/28 03:07:50;;;;;;;15.07;7.90;;;;;;;;;;5050504;28;20049;-67
2024/01/28 03:10:16;;;;;;;16.38;7.65;;;;;;;;;;5049527;28;20041;-67
2024/01/28 03:12:43;;;;;;;15.52;6.93;;;;;;;;;;5046499;28;20057;-67
2024/01/28 03:15:11;;;;;;;15.52;7.35;;;;;;;;;;5048483;28;20063;-67
2024/01/28 03:17:38;;;;;;;14.50;7.85;;;;;;;;;;5044125;28;20505;-68
2024/01/28 03:20:06;;;;;;;17.38;7.00;;;;;;;;;;5050542;28;20064;-68
2024/01/28 03:22:32;;;;;;;15.23;7.15;;;;;;;;;;5039911;28;20055;-67
2024/01/28 03:24:58;;;;;;;18.98;6.97;;;;;;;;;;5050972;28;20465;-68
2024/01/28 03:27:25;;;;;;;14.48;7.30;;;;;;;;;;5040721;28;20052;-67
2024/01/28 03:29:51;;;;;;;15.38;7.53;;;;;;;;;;5050346;28;20132;-67
2024/01/28 03:32:19;;;;;;;19.17;7.20;;;;;;;;;;5050016;28;20053;-67
2024/01/28 03:34:46;;;;;;;17.70;7.20;;;;;;;;;;5050987;28;20531;-67
2024/01/28 03:37:12;;;;;;;11.50;6.88;;;;;;;;;;5043575;28;20525;-67
2024/01/28 03:39:38;;;;;;;16.55;7.25;;;;;;;;;;5045855;28;20128;-67
2024/01/28 03:42:05;;;;;;;14.02;7.20;;;;;;;;;;5050418;28;20572;-67
2024/01/28 03:44:32;;;;;;;14.57;6.97;;;;;;;;;;5050893;28;20102;-68
2024/01/28 03:46:58;;;;;;;16.90;6.57;;;;;;;;;;5050284;28;20041;-68
2024/01/28 03:49:27;;;;;;;13.25;7.18;;;;;;;;;;5049020;28;20103;-67
2024/01/28 03:51:53;;;;;;;12.80;6.30;;;;;;;;;;5050117;28;20136;-68
2024/01/28 03:54:20;;;;;;;13.43;6.20;;;;;;;;;;5035569;28;20049;-68
2024/01/28 03:56:46;;;;;;;10.93;5.80;;;;;;;;;;5043348;28;20545;-67
2024/01/28 03:59:13;;;;;;;11.77;6.90;;;;;;;;;;5048026;28;20045;-67
2024/01/28 04:01:40;;;;;;;11.52;6.55;;;;;;;;;;5049406;28;20053;-68
2024/01/28 04:04:06;;;;;;;12.20;5.70;;;;;;;;;;5050479;28;20059;-68
2024/01/28 04:06:34;;;;;;;14.55;6.60;;;;;;;;;;5042843;28;20053;-67
2024/01/28 04:09:00;;;;;;;12.15;6.65;;;;;;;;;;5050080;28;20052;-67
2024/01/28 04:11:27;;;;;;;12.68;6.43;;;;;;;;;;5046869;28;20052;-67
2024/01/28 04:13:54;;;;;;;12.48;5.97;;;;;;;;;;5037612;28;20057;-67
2024/01/28 04:16:21;;;;;;;13.77;6.97;;;;;;;;;;5048131;28;20098;-68
2024/01/28 04:18:47;;;;;;;15.02;8.32;;;;;;;;;;5049820;28;20485;-67
2024/01/28 04:21:14;;;;;;;14.07;6.80;;;;;;;;;;5048698;28;20041;-68
2024/01/28 04:23:42;;;;;;;15.40;7.05;;;;;;;;;;5050511;28;20057;-68
2024/01/28 04:26:08;;;;;;;16.85;7.30;;;;;;;;;;5050241;28;20045;-67
2024/01/28 04:28:35;;;;;;;15.00;7.78;;;;;;;;;;5049755;28;20055;-68
2024/01/28 04:31:02;;;;;;;16.83;6.95;;;;;;;;;;5049703;28;20313;-68
2024/01/28 04:33:29;;;;;;;18.42;7.03;;;;;;;;;;5050240;28;20057;-68
2024/01/28 04:35:56;;;;;;;17.00;7.60;;;;;;;;;;5049954;28;20056;-67
2024/01/28 04:38:22;;;;;;;14.90;6.70;;;;;;;;;;5049597;28;20049;-67
2024/01/28 04:40:50;;;;;;;16.92;8.02;;;;;;;;;;5049740;28;20045;-67
2024/01/28 04:43:16;;;;;;;14.88;7.38;;;;;;;;;;5049207;28;20052;-67
2024/01/28 04:45:43;;;;;;;17.98;7.88;;;;;;;;;;5050377;28;20052;-68
2024/01/28 04:48:09;;;;;;;18.55;9.05;;;;;;;;;;5049497;28;20501;-67
2024/01/28 04:50:36;;;;;;;19.20;8.80;;;;;;;;;;5041848;28;20138;-67
2024/01/28 04:53:02;;;;;;;15.55;7.68;;;;;;;;;;5050195;28;20049;-68
2024/01/28 04:55:28;;;;;;;18.05;7.60;;;;;;;;;;5049215;28;20398;-68
2024/01/28 04:57:56;;;;;;;19.02;8.43;;;;;;;;;;5048250;28;20402;-67
2024/01/28 05:00:23;;;;;;;19.88;7.95;;;;;;;;;;5053154;28;20047;-68
2024/01/28 05:02:49;;;;;;;15.18;7.28;;;;;;;;;;5046062;28;20048;-67
2024/01/28 05:05:16;;;;;;;18.90;7.82;;;;;;;;;;5053862;28;20049;-67
2024/01/28 05:07:42;;;;;;;19.17;8.25;;;;;;;;;;5046521;28;20076;-68
2024/01/28 05:10:10;;;;;;;15.90;7.28;;;;;;;;;;5044885;28;20045;-68
2024/01/28 05:12:36;;;;;;;16.08;7.53;;;;;;;;;;5042767;28;20060;-68
2024/01/28 05:15:06;;;;;;;18.50;7.72;;;;;;;;;;5044210;28;20049;-68
2024/01/28 05:17:32;;;;;;;12.85;6.07;;;;;;;;;;5052386;28;20048;-67
2024/01/28 05:19:59;;;;;;;14.45;5.82;;;;;;;;;;5052441;28;20049;-68
2024/01/28 05:22:25;;;;;;;18.20;5.60;;;;;;;;;;5053607;28;20499;-68
2024/01/28 05:24:51;;;;;;;12.85;5.70;;;;;;;;;;5050186;28;20137;-67
2024/01/28 05:27:18;;;;;;;20.92;8.43;;;;;;;;;;5052979;28;20053;-67
2024/01/28 05:29:44;;;;;;;14.07;6.85;;;;;;;;;;5052677;28;20515;-67
2024/01/28 05:32:12;;;;;;;13.05;6.43;;;;;;;;;;5048800;28;20049;-67
2024/01/28 05:34:38;;;;;;;14.57;6.18;;;;;;;;;;5053400;28;20056;-68
2024/01/28 05:37:05;;;;;;;13.70;5.68;;;;;;;;;;5053414;28;20059;-67
2024/01/28 05:39:31;;;;;;;11.48;5.97;;;;;;;;;;5041476;28;20045;-68
2024/01/28 05:41:57;;;;;;;12.15;6.03;;;;;;;;;;5037952;28;20057;-67
2024/01/28 05:44:24;;;;;;;14.40;6.72;;;;;;;;;;5051683;28;20053;-67
2024/01/28 05:46:50;;;;;;;13.15;6.22;;;;;;;;;;5052134;28;20056;-67
2024/01/28 05:49:18;;;;;;;14.30;6.13;;;;;;;;;;5049196;28;20465;-67
2024/01/28 05:51:44;;;;;;;16.80;7.25;;;;;;;;;;5052589;28;20055;-68
2024/01/28 05:54:11;;;;;;;16.42;6.20;;;;;;;;;;5042378;28;20051;-67
2024/01/28 05:56:37;;;;;;;12.52;6.00;;;;;;;;;;5051960;28;20049;-67
2024/01/28 05:59:04;;;;;;;13.77;6.35;;;;;;;;;;5048897;28;20045;-68
2024/01/28 06:01:30;;;;;;;12.77;5.38;;;;;;;;;;5044780;28;20047;-67
2024/01/28 06:03:56;;;;;;;12.68;6.07;;;;;;;;;;5050943;28;20041;-67
2024/01/28 06:06:24;;;;;;;14.93;6.18;;;;;;;;;;5051772;28;20051;-67
2024/01/28 06:08:50;;;;;;;10.20;5.15;;;;;;;;;;5051959;28;20489;-67
2024/01/28 06:11:17;;;;;;;13.02;5.82;;;;;;;;;;5051233;28;20519;-67
2024/01/28 06:13:43;;;;;;;13.10;6.57;;;;;;;;;;5044890;28;20413;-68
2024/01/28 06:16:09;;;;;;;12.15;6.00;;;;;;;;;;5039206;28;20047;-67
2024/01/28 06:18:43;;;;;;;12.90;5.78;;;;;;;;;;5038406;28;20048;-67
2024/01/28 06:21:10;;;;;;;14.98;5.55;;;;;;;;;;5047483;28;20099;-68
2024/01/28 06:23:37;;;;;;;14.77;6.15;;;;;;;;;;5051245;28;20056;-68
2024/01/28 06:26:04;;;;;;;13.05;5.05;;;;;;;;;;5052240;28;20516;-68
2024/01/28 06:28:31;;;;;;;12.10;5.95;;;;;;;;;;5050798;28;20051;-67
2024/01/28 06:30:57;;;;;;;10.02;5.07;;;;;;;;;;5051533;28;20068;-67
2024/01/28 06:33:24;;;;;;;12.77;6.03;;;;;;;;;;5046893;28;20306;-67
2024/01/28 06:35:50;;;;;;;14.88;6.45;;;;;;;;;;5052310;28;20493;-67
2024/01/28 06:38:18;;;;;;;14.73;6.40;;;;;;;;;;5051218;28;20056;-67
2024/01/28 06:40:46;;;;;;;13.43;5.70;;;;;;;;;;5051082;28;20044;-67
2024/01/28 06:43:12;;;;;;;13.75;6.18;;;;;;;;;;5049046;28;20462;-68
2024/01/28 06:45:39;;;;;;;17.00;6.45;;;;;;;;;;5040630;28;20049;-67
2024/01/28 06:48:05;;;;;;;13.15;6.18;;;;;;;;;;5050468;28;20057;-67
2024/01/28 06:50:32;;;;;;;15.73;6.05;;;;;;;;;;5049237;28;20417;-67
2024/01/28 06:53:01;;;;;;;11.30;5.95;;;;;;;;;;5046928;28;20103;-68
2024/01/28 06:55:27;;;;;;;12.07;6.55;;;;;;;;;;5047888;28;20461;-68
2024/01/28 06:57:55;;;;;;;14.10;6.47;;;;;;;;;;5051360;28;20080;-67
2024/01/28 07:00:22;;;;;;;15.05;6.90;;;;;;;;;;5043560;28;20492;-67
2024/01/28 07:02:49;;;;;;;11.73;5.45;;;;;;;;;;5051336;28;20049;-67
2024/01/28 07:05:15;;;;;;;11.80;6.70;;;;;;;;;;5050657;28;20045;-67
2024/01/28 07:07:42;;;;;;;10.65;5.53;;;;;;;;;;5051849;28;20041;-68
2024/01/28 07:10:09;;;;;;;10.38;5.40;;;;;;;;;;5049921;28;20059;-67
2024/01/28 07:12:35;;;;;;;10.43;5.78;;;;;;;;;;5048461;28;20052;-68
2024/01/28 07:15:03;;;;;;;12.18;6.05;;;;;;;;;;5048954;28;20055;-67
2024/01/28 07:17:30;;;;;;;9.63;5.50;;;;;;;;;;5051083;28;20098;-67
2024/01/28 07:19:57;;;;;;;9.95;5.82;;;;;;;;;;5049263;28;20089;-67
2024/01/28 07:22:23;;;;;;;12.82;5.70;;;;;;;;;;5049076;28;20489;-67
2024/01/28 07:24:50;;;;;;;11.57;5.07;;;;;;;;;;5051585;28;20052;-67
2024/01/28 07:27:16;;;;;;;11.77;6.93;;;;;;;;;;5051189;28;20052;-67
2024/01/28 07:29:43;;;;;;;11.23;5.75;;;;;;;;;;5047279;28;20041;-68
2024/01/28 07:32:13;;;;;;;10.30;5.93;;;;;;;;;;5047442;28;20041;-67
2024/01/28 07:34:39;;;;;;;11.55;5.82;;;;;;;;;;5046722;28;20418;-68
2024/01/28 07:37:06;;;;;;;12.85;6.05;;;;;;;;;;5050548;28;20126;-67
2024/01/28 07:39:32;;;;;;;10.32;5.70;;;;;;;;;;5047305;28;20052;-68
2024/01/28 07:41:59;;;;;;;12.18;5.97;;;;;;;;;;5043054;28;20051;-67
2024/01/28 07:44:25;;;;;;;10.05;6.00;;;;;;;;;;5049204;28;20045;-67
2024/01/28 07:46:52;;;;;;;12.60;5.80;;;;;;;;;;5039594;28;20076;-67
2024/01/28 07:49:20;;;;;;;12.13;5.65;;;;;;;;;;5047891;28;20091;-67
2024/01/28 07:51:46;;;;;;;9.40;5.50;;;;;;;;;;5050006;28;20106;-67
2024/01/28 07:54:13;;;;;;;11.48;6.05;;;;;;;;;;5046720;28;20051;-67
2024/01/28 07:56:39;;;;;;;11.90;6.68;;;;;;;;;;5046609;28;20118;-67
2024/01/28 07:59:06;;;;;;;10.82;5.47;;;;;;;;;;5041962;28;20076;-68
2024/01/28 08:01:32;;;;;;;14.45;5.88;;;;;;;;;;5047101;28;20068;-67
2024/01/28 08:03:59;;;;;;;11.85;5.80;;;;;;;;;;5050298;28;20243;-67
2024/01/28 08:06:26;;;;;;;9.35;5.50;;;;;;;;;;5050389;28;20417;-67
2024/01/28 08:08:53;;;;;;;9.63;6.28;;;;;;;;;;5049874;28;20051;-67
2024/01/28 08:11:20;;;;;;;11.38;5.80;;;;;;;;;;5046003;28;20056;-67
2024/01/28 08:13:48;;;;;;;11.65;6.05;;;;;;;;;;5043953;28;20048;-68
2024/01/28 08:16:15;;;;;;;13.02;5.75;;;;;;;;;;5040384;28;20410;-67
2024/01/28 08:18:42;;;;;;;10.13;6.43;;;;;;;;;;5039778;28;20485;-67
2024/01/28 08:21:08;;;;;;;11.25;5.80;;;;;;;;;;5048787;28;20052;-67
2024/01/28 08:23:36;;;;;;;10.95;5.45;;;;;;;;;;5050195;28;20052;-67
2024/01/28 08:26:02;;;;;;;11.18;5.28;;;;;;;;;;5047987;28;20051;-67
2024/01/28 08:28:28;;;;;;;10.18;5.97;;;;;;;;;;5048298;28;20083;-67
2024/01/28 08:30:54;;;;;;;9.07;5.43;;;;;;;;;;5049636;28;20055;-67
2024/01/28 08:33:20;;;;;;;14.43;6.38;;;;;;;;;;5050899;28;20045;-67
2024/01/28 08:35:47;;;;;;;11.50;5.38;;;;;;;;;;5054549;28;20055;-67
2024/01/28 08:38:13;;;;;;;9.90;5.55;;;;;;;;;;5046423;28;20045;-67
2024/01/28 08:40:41;;;;;;;9.05;5.53;;;;;;;;;;5049601;28;20053;-67
2024/01/28 08:43:08;;;;;;;11.13;5.60;;;;;;;;;;5044739;28;20048;-67
2024/01/28 08:45:36;;;;;;;9.25;5.63;;;;;;;;;;5053575;28;20084;-67
2024/01/28 08:48:02;;;;;;;11.32;5.50;;;;;;;;;;5053272;28;20045;-67
2024/01/28 08:50:28;;;;;;;12.15;6.32;;;;;;;;;;5052425;28;20079;-67
2024/01/28 08:52:55;;;;;;;14.00;6.00;;;;;;;;;;5053873;28;20049;-68
2024/01/28 08:55:22;;;;;;;13.57;6.38;;;;;;;;;;5046064;28;20057;-67
2024/01/28 08:57:49;;;;;;;10.52;5.70;;;;;;;;;;5053880;28;20136;-68
2024/01/28 09:00:16;;;;;;;9.90;5.65;;;;;;;;;;5052485;28;20049;-67
2024/01/28 09:02:43;;;;;;;11.63;5.95;;;;;;;;;;5053779;28;20505;-67
2024/01/28 09:05:10;;;;;;;10.02;5.22;;;;;;;;;;5045171;28;20061;-67
2024/01/28 09:07:36;;;;;;;10.68;5.32;;;;;;;;;;5044961;28;20057;-67
2024/01/28 09:10:02;;;;;;;9.85;5.45;;;;;;;;;;5045845;28;20049;-67
2024/01/28 09:12:29;;;;;;;10.57;5.65;;;;;;;;;;5052921;28;20240;-67
2024/01/28 09:14:56;;;;;;;12.48;6.10;;;;;;;;;;5053421;28;20057;-67
2024/01/28 09:17:23;;;;;;;13.60;6.38;;;;;;;;;;5051460;28;20047;-67
2024/01/28 09:19:49;;;;;;;18.30;6.93;;;;;;;;;;5046746;28;20045;-67
2024/01/28 09:22:16;;;;;;;11.68;6.57;;;;;;;;;;5048398;28;20067;-67
2024/01/28 09:24:42;;;;;;;11.82;5.22;;;;;;;;;;5052979;28;20547;-67
2024/01/28 09:27:08;;;;;;;12.32;5.63;;;;;;;;;;5046615;28;20485;-67
2024/01/28 09:29:37;;;;;;;10.23;6.25;;;;;;;;;;5052771;28;20047;-68
2024/01/28 09:32:05;;;;;;;8.57;4.97;;;;;;;;;;5053347;28;20051;-67
2024/01/28 09:34:32;;;;;;;10.93;6.05;;;;;;;;;;5053669;28;20045;-68
2024/01/28 09:36:58;;;;;;;12.43;6.03;;;;;;;;;;5053650;28;20045;-67
2024/01/28 09:39:25;;;;;;;14.57;6.30;;;;;;;;;;5051222;28;20041;-67
2024/01/28 09:41:56;;;;;;;12.02;5.82;;;;;;;;;;5043553;28;20045;-68
2024/01/28 09:44:22;;;;;;;11.52;5.60;;;;;;;;;;5051057;28;20049;-68
2024/01/28 09:46:49;;;;;;;9.50;6.20;;;;;;;;;;5052306;28;20052;-68
2024/01/28 09:49:17;;;;;;;11.82;6.60;;;;;;;;;;5051190;28;20489;-68
2024/01/28 09:51:44;;;;;;;12.55;6.60;;;;;;;;;;5053039;28;20045;-68
2024/01/28 09:54:12;;;;;;;12.20;6.38;;;;;;;;;;5053286;28;20055;-68
2024/01/28 09:56:40;;;;;;;14.18;6.82;;;;;;;;;;5034023;28;20553;-68
2024/01/28 09:59:09;;;;;;;17.42;6.97;;;;;;;;;;5048354;28;20045;-68
2024/01/28 10:01:36;;;;;;;11.48;6.03;;;;;;;;;;5052633;28;20129;-67
2024/01/28 10:04:02;;;;;;;16.80;7.50;;;;;;;;;;5045410;28;20505;-68
2024/01/28 10:06:30;;;;;;;13.43;7.18;;;;;;;;;;5049431;28;20520;-67
2024/01/28 10:08:56;;;;;;;14.18;7.53;;;;;;;;;;5046709;28;20071;-67
2024/01/28 10:11:23;;;;;;;15.93;7.97;;;;;;;;;;5043533;28;20060;-68
2024/01/28 10:13:50;;;;;;;14.20;6.88;;;;;;;;;;5048150;28;20042;-68
2024/01/28 10:16:22;;;;;;;13.18;7.38;;;;;;;;;;5042502;28;20052;-67
2024/01/28 10:18:48;;;;;;;14.05;6.90;;;;;;;;;;5044855;28;20048;-67
2024/01/28 10:21:15;;;;;;;12.43;6.78;;;;;;;;;;5048945;28;20045;-67
2024/01/28 10:23:43;;;;;;;13.18;6.75;;;;;;;;;;5052702;28;20051;-67
2024/01/28 10:26:09;;;;;;;13.73;6.68;;;;;;;;;;5051865;28;20044;-68
2024/01/28 10:28:38;;;;;;;13.65;7.07;;;;;;;;;;5052158;28;20041;-68
2024/01/28 10:31:05;;;;;;;13.07;5.78;;;;;;;;;;5051857;28;20501;-68
2024/01/28 10:33:31;;;;;;;16.90;8.20;;;;;;;;;;5049526;28;20429;-67
2024/01/28 10:36:01;;;;;;;12.85;6.68;;;;;;;;;;5052606;28;20051;-68
2024/01/28 10:38:28;;;;;;;11.32;5.68;;;;;;;;;;5051614;28;20079;-68
2024/01/28 10:40:56;;;;;;;10.55;5.47;;;;;;;;;;5051594;28;20493;-68
2024/01/28 10:43:24;;;;;;;17.33;9.30;;;;;;;;;;5050426;28;20211;-68
2024/01/28 10:45:55;;;;;;;24.90;12.55;;;;;;;;;;5052444;28;20045;-68
2024/01/28 10:48:23;;;;;;;14.48;7.20;;;;;;;;;;5051654;28;20420;-68
2024/01/28 10:50:51;;;;;;;15.23;7.75;;;;;;;;;;5051325;28;20133;-68
2024/01/28 10:53:18;;;;;;;24.92;11.68;;;;;;;;;;5043779;28;20045;-67
2024/01/28 10:55:45;;;;;;;11.55;6.53;;;;;;;;;;5052086;28;20055;-68
2024/01/28 10:58:13;;;;;;;10.98;6.53;;;;;;;;;;5048072;28;20448;-68
2024/01/28 11:00:40;;;;;;;11.05;6.18;;;;;;;;;;5047715;28;20314;-68
2024/01/28 11:03:07;;;;;;;12.20;7.50;;;;;;;;;;5042068;28;20395;-68
2024/01/28 11:05:34;;;;;;;10.90;5.90;;;;;;;;;;5050762;28;20053;-68
2024/01/28 11:08:01;;;;;;;12.15;6.13;;;;;;;;;;5044172;28;20072;-67
2024/01/28 11:10:27;;;;;;;12.38;6.25;;;;;;;;;;5050281;28;20051;-67
2024/01/28 11:12:54;;;;;;;15.05;7.28;;;;;;;;;;5051905;28;20068;-67
2024/01/28 11:15:22;;;;;;;11.35;6.28;;;;;;;;;;5051592;28;20052;-68
2024/01/28 11:17:50;;;;;;;13.93;6.97;;;;;;;;;;5050572;28;20048;-67
2024/01/28 11:20:22;;;;;;;12.75;6.85;;;;;;;;;;5048761;28;20052;-68
2024/01/28 11:22:50;;;;;;;20.65;8.75;;;;;;;;;;5052051;28;20413;-67
2024/01/28 11:25:17;;;;;;;18.02;7.95;;;;;;;;;;5044165;28;20041;-67
2024/01/28 11:27:43;;;;;;;14.25;7.38;;;;;;;;;;5051495;28;20492;-68
2024/01/28 11:30:10;;;;;;;11.95;6.63;;;;;;;;;;5049358;28;20052;-67
2024/01/28 11:32:38;;;;;;;12.98;7.10;;;;;;;;;;5034623;28;20554;-68
2024/01/28 11:35:05;;;;;;;11.88;6.95;;;;;;;;;;5051615;28;20053;-68
2024/01/28 11:37:34;;;;;;;11.25;6.60;;;;;;;;;;5047219;28;20053;-67
2024/01/28 11:40:03;;;;;;;10.98;6.45;;;;;;;;;;5050310;28;20052;-67
2024/01/28 11:42:29;;;;;;;12.98;6.78;;;;;;;;;;5051165;28;20135;-67
2024/01/28 11:44:56;;;;;;;11.48;6.57;;;;;;;;;;5051083;28;20045;-68
2024/01/28 11:47:22;;;;;;;13.40;6.25;;;;;;;;;;5051299;28;20409;-67
2024/01/28 11:49:51;;;;;;;15.73;7.68;;;;;;;;;;5047060;28;20426;-67
2024/01/28 11:52:18;;;;;;;11.23;7.68;;;;;;;;;;5045467;28;20044;-68
2024/01/28 11:54:47;;;;;;;12.50;6.93;;;;;;;;;;5051132;28;20057;-67
2024/01/28 11:57:13;;;;;;;13.60;7.63;;;;;;;;;;5048326;28;20508;-67
2024/01/28 11:59:40;;;;;;;12.60;6.93;;;;;;;;;;5046662;28;20045;-67
2024/01/28 12:02:06;;;;;;;15.23;7.60;;;;;;;;;;5047164;28;20063;-68
2024/01/28 12:04:32;;;;;;;16.58;8.07;;;;;;;;;;5036336;28;20041;-67
2024/01/28 12:07:00;;;;;;;15.25;8.07;;;;;;;;;;5051228;28;20051;-68
2024/01/28 12:09:29;;;;;;;12.82;7.60;;;;;;;;;;5040484;28;20041;-69
2024/01/28 12:11:56;;;;;;;11.27;7.13;;;;;;;;;;5039273;28;20419;-72
2024/01/28 12:14:23;;;;;;;11.38;6.63;;;;;;;;;;5046092;28;20061;-68
2024/01/28 12:16:49;;;;;;;12.13;6.28;;;;;;;;;;5051101;28;20051;-68
2024/01/28 12:19:15;;;;;;;12.05;6.00;;;;;;;;;;5044018;28;20508;-67
2024/01/28 12:21:42;;;;;;;12.18;5.95;;;;;;;;;;5047608;28;20048;-68
2024/01/28 12:24:11;;;;;;;10.77;6.57;;;;;;;;;;5043382;28;20045;-68
2024/01/28 12:26:37;;;;;;;9.35;5.70;;;;;;;;;;5050048;28;20140;-68
2024/01/28 12:29:03;;;;;;;8.52;5.40;;;;;;;;;;5040608;28;20052;-67
2024/01/28 12:31:30;;;;;;;8.35;5.03;;;;;;;;;;5046664;28;20394;-68
2024/01/28 12:33:57;;;;;;;9.45;5.32;;;;;;;;;;5045851;28;20493;-68
2024/01/28 12:36:23;;;;;;;14.90;6.38;;;;;;;;;;5050955;28;20052;-68
2024/01/28 12:38:50;;;;;;;9.05;5.38;;;;;;;;;;5050212;28;20045;-67
2024/01/28 12:41:18;;;;;;;12.40;5.95;;;;;;;;;;5045594;28;20515;-68
2024/01/28 12:43:48;;;;;;;19.67;11.05;;;;;;;;;;5034952;28;20045;-67
2024/01/28 12:46:14;;;;;;;7.78;5.00;;;;;;;;;;5046825;28;20049;-68
2024/01/28 12:48:41;;;;;;;6.85;4.07;;;;;;;;;;5045517;28;20099;-68
2024/01/28 12:51:07;;;;;;;7.97;4.65;;;;;;;;;;5050097;28;20450;-68
2024/01/28 12:53:34;;;;;;;11.00;4.95;;;;;;;;;;5041216;28;20132;-68
2024/01/28 12:56:00;;;;;;;10.38;5.93;;;;;;;;;;5035776;28;20050;-68
2024/01/28 12:58:28;;;;;;;7.93;4.90;;;;;;;;;;5039653;28;20045;-67
2024/01/28 13:00:54;;;;;;;9.82;5.70;;;;;;;;;;5049834;28;20492;-67
2024/01/28 13:03:20;;;;;;;9.38;4.75;;;;;;;;;;5046996;28;20045;-67
2024/01/28 13:05:47;;;;;;;7.40;4.68;;;;;;;;;;5050321;28;20053;-68
2024/01/28 13:08:13;;;;;;;11.40;5.55;;;;;;;;;;5042162;28;20049;-68
2024/01/28 13:10:39;;;;;;;8.68;5.03;;;;;;;;;;5038611;28;20083;-68
2024/01/28 13:13:06;;;;;;;6.85;4.65;;;;;;;;;;5041610;28;20068;-68
2024/01/28 13:15:33;;;;;;;9.13;5.10;;;;;;;;;;5042731;28;20056;-68
2024/01/28 13:18:00;;;;;;;8.75;5.35;;;;;;;;;;5043508;28;20049;-67
2024/01/28 13:20:26;;;;;;;7.05;4.65;;;;;;;;;;5043627;28;20056;-67
2024/01/28 13:22:52;;;;;;;7.38;4.78;;;;;;;;;;5053471;28;20059;-67
2024/01/28 13:25:20;;;;;;;12.27;4.13;;;;;;;;;;5053765;28;20045;-69
2024/01/28 13:27:47;;;;;;;8.73;5.28;;;;;;;;;;5054272;28;20091;-67
2024/01/28 13:30:13;;;;;;;11.60;5.75;;;;;;;;;;5053084;28;20059;-71
2024/01/28 13:32:42;;;;;;;8.07;3.60;;;;;;;;;;5054142;28;20053;-70
2024/01/28 13:35:09;;;;;;;8.15;4.18;;;;;;;;;;5054528;28;20324;-69
2024/01/28 13:37:36;;;;;;;6.40;4.00;;;;;;;;;;5053790;28;20048;-70
2024/01/28 13:40:03;;;;;;;8.98;5.38;;;;;;;;;;5052652;28;20053;-70
2024/01/28 13:42:30;;;;;;;8.75;3.80;;;;;;;;;;5049588;28;20512;-70
2024/01/28 13:44:56;;;;;;;5.85;4.25;;;;;;;;;;5053611;28;20048;-67
2024/01/28 13:47:24;;;;;;;10.48;3.90;;;;;;;;;;5052195;28;20056;-70
2024/01/28 13:49:52;;;;;;;7.55;4.43;;;;;;;;;;5050153;28;20049;-70
2024/01/28 13:52:18;;;;;;;6.35;3.83;;;;;;;;;;5053528;28;20417;-70
2024/01/28 13:54:45;;;;;;;6.90;4.35;;;;;;;;;;5053901;28;20045;-70
2024/01/28 13:57:11;;;;;;;7.10;4.93;;;;;;;;;;5050732;28;20422;-70
2024/01/28 13:59:38;;;;;;;7.32;5.03;;;;;;;;;;5053055;28;20409;-70
2024/01/28 14:02:05;;;;;;;9.13;5.28;;;;;;;;;;5053223;28;20131;-70
2024/01/28 14:04:31;;;;;;;8.18;4.88;;;;;;;;;;5054068;28;20481;-70
2024/01/28 14:06:59;;;;;;;8.77;5.13;;;;;;;;;;5053485;28;20049;-69
2024/01/28 14:09:26;;;;;;;7.72;4.47;;;;;;;;;;5052917;28;20041;-71
2024/01/28 14:11:52;;;;;;;9.07;5.22;;;;;;;;;;5053497;28;20136;-70
2024/01/28 14:14:18;;;;;;;8.10;5.18;;;;;;;;;;5053307;28;20044;-71
2024/01/28 14:16:45;;;;;;;9.15;5.28;;;;;;;;;;5053577;28;20106;-70
2024/01/28 14:19:11;;;;;;;10.65;5.80;;;;;;;;;;5045029;28;20053;-70
2024/01/28 14:21:38;;;;;;;11.48;6.18;;;;;;;;;;5053175;28;20067;-71
2024/01/28 14:24:06;;;;;;;12.20;5.82;;;;;;;;;;5049334;28;20041;-69
2024/01/28 14:26:32;;;;;;;9.85;5.63;;;;;;;;;;5048030;28;20119;-69
2024/01/28 14:28:58;;;;;;;11.88;5.65;;;;;;;;;;5052997;28;20045;-70